createdAt,value
2024-03-10T00:00:47.723Z,44.82
2024-03-10T00:01:47.809Z,44.96
2024-03-10T00:02:47.896Z,44.73
2024-03-10T00:03:47.700Z,44.74
2024-03-10T00:04:47.760Z,44.40
2024-03-10T00:05:47.688Z,43.95
2024-03-10T00:06:47.653Z,44.30
2024-03-10T00:07:47.939Z,44.80
2024-03-10T00:08:47.625Z,45.17
2024-03-10T00:09:47.646Z,45.21
2024-03-10T00:10:47.693Z,44.84
2024-03-10T00:11:47.719Z,45.42
2024-03-10T00:12:47.574Z,45.25
2024-03-10T00:13:47.654Z,45.04
2024-03-10T00:14:47.599Z,44.94
2024-03-10T00:15:47.562Z,45.39
2024-03-10T00:16:47.568Z,45.31
2024-03-10T00:17:47.573Z,45.23
2024-03-10T00:18:47.504Z,45.45
2024-03-10T00:19:47.541Z,44.94
2024-03-10T00:20:47.509Z,45.15
2024-03-10T00:21:47.462Z,45.72
2024-03-10T00:22:50.351Z,45.06
2024-03-10T00:23:47.464Z,45.38
2024-03-10T00:24:47.428Z,44.66
2024-03-10T00:25:47.467Z,45.11
2024-03-10T00:26:47.410Z,45.60
2024-03-10T00:27:47.410Z,45.03
2024-03-10T00:28:47.383Z,44.96
2024-03-10T00:29:47.394Z,45.46
2024-03-10T00:30:47.350Z,45.62
2024-03-10T00:31:47.349Z,45.48
2024-03-10T00:32:47.368Z,45.68
2024-03-10T00:33:47.321Z,46.03
2024-03-10T00:34:47.324Z,46.48
2024-03-10T00:35:47.299Z,46.01
2024-03-10T00:36:47.303Z,45.85
2024-03-10T00:37:47.323Z,45.92
2024-03-10T00:38:47.274Z,45.97
2024-03-10T00:39:47.262Z,45.72
2024-03-10T00:40:47.216Z,45.64
2024-03-10T00:41:47.252Z,46.00
2024-03-10T00:42:47.203Z,45.97
2024-03-10T00:43:47.223Z,46.29
2024-03-10T00:44:47.165Z,46.23
2024-03-10T00:45:47.160Z,46.43
2024-03-10T00:46:47.173Z,46.65
2024-03-10T00:47:47.240Z,46.45
2024-03-10T00:48:47.142Z,45.96
2024-03-10T00:49:47.173Z,46.39
2024-03-10T00:50:47.110Z,46.15
2024-03-10T00:51:47.078Z,46.95
2024-03-10T00:52:47.104Z,46.59
2024-03-10T00:53:47.054Z,46.67
2024-03-10T00:54:47.035Z,45.76
2024-03-10T00:55:47.028Z,46.18
2024-03-10T00:56:47.042Z,46.71
2024-03-10T00:57:47.002Z,46.52
2024-03-10T00:58:47.017Z,46.79
2024-03-10T00:59:46.998Z,46.99
2024-03-10T01:00:47.023Z,46.83
2024-03-10T01:01:46.975Z,46.70
2024-03-10T01:02:46.948Z,46.83
2024-03-10T01:03:46.941Z,47.25
2024-03-10T01:04:46.990Z,47.66
2024-03-10T01:05:46.907Z,47.05
2024-03-10T01:06:48.964Z,46.77
2024-03-10T01:07:46.928Z,46.76
2024-03-10T01:08:46.909Z,47.66
2024-03-10T01:09:46.891Z,47.52
2024-03-10T01:10:46.900Z,47.55
2024-03-10T01:11:46.888Z,47.68
2024-03-10T01:12:46.819Z,47.36
2024-03-10T01:13:46.846Z,47.42
2024-03-10T01:14:46.814Z,47.46
2024-03-10T01:15:46.783Z,47.43
2024-03-10T01:16:46.822Z,47.10
2024-03-10T01:17:46.800Z,47.50
2024-03-10T01:18:46.771Z,47.83
2024-03-10T01:19:46.752Z,47.82
2024-03-10T01:20:47.080Z,47.89
2024-03-10T01:21:46.743Z,47.89
2024-03-10T01:22:46.717Z,47.80
2024-03-10T01:23:46.701Z,47.56
2024-03-10T01:24:46.677Z,47.52
2024-03-10T01:25:46.734Z,47.80
2024-03-10T01:26:46.643Z,48.04
2024-03-10T01:27:46.632Z,47.37
2024-03-10T01:28:46.673Z,48.03
2024-03-10T01:29:46.600Z,48.24
2024-03-10T01:30:46.612Z,47.62
2024-03-10T01:31:46.636Z,47.48
2024-03-10T01:32:46.627Z,48.20
2024-03-10T01:33:46.550Z,48.34
2024-03-10T01:34:46.589Z,48.30
2024-03-10T01:35:46.547Z,48.07
2024-03-10T01:36:46.530Z,47.87
2024-03-10T01:37:46.544Z,48.05
2024-03-10T01:38:46.530Z,47.73
2024-03-10T01:39:46.513Z,47.65
2024-03-10T01:40:46.561Z,48.05
2024-03-10T01:41:46.469Z,48.42
2024-03-10T01:42:46.432Z,48.71
2024-03-10T01:43:46.435Z,48.20
2024-03-10T01:44:46.418Z,48.43
2024-03-10T01:45:46.404Z,48.78
2024-03-10T01:46:46.400Z,47.87
2024-03-10T01:47:46.417Z,48.26
2024-03-10T01:48:46.371Z,48.38
2024-03-10T01:49:46.399Z,48.30
2024-03-10T01:50:46.347Z,48.20
2024-03-10T01:51:46.380Z,48.22
2024-03-10T01:52:46.333Z,47.70
2024-03-10T01:53:46.302Z,47.69
2024-03-10T01:54:46.295Z,47.83
2024-03-10T01:55:46.311Z,47.68
2024-03-10T01:56:46.261Z,48.15
2024-03-10T01:57:46.241Z,48.63
2024-03-10T01:58:46.394Z,48.46
2024-03-10T01:59:46.210Z,48.02
2024-03-10T02:00:46.242Z,48.06
2024-03-10T02:01:46.217Z,48.66
2024-03-10T02:02:46.193Z,48.62
2024-03-10T02:03:46.176Z,48.34
2024-03-10T02:04:46.216Z,48.09
2024-03-10T02:05:46.149Z,48.08
2024-03-10T02:06:46.161Z,47.91
2024-03-10T02:07:46.155Z,47.80
2024-03-10T02:08:46.124Z,47.80
2024-03-10T02:09:46.092Z,48.39
2024-03-10T02:10:46.204Z,48.11
2024-03-10T02:11:46.162Z,48.05
2024-03-10T02:12:46.047Z,48.10
2024-03-10T02:13:46.098Z,48.22
2024-03-10T02:14:46.038Z,47.64
2024-03-10T02:15:46.013Z,48.00
2024-03-10T02:16:46.059Z,48.27
2024-03-10T02:17:46.003Z,48.02
2024-03-10T02:18:45.987Z,47.88
2024-03-10T02:19:46.032Z,48.22
2024-03-10T02:20:45.963Z,48.10
2024-03-10T02:21:45.965Z,47.78
2024-03-10T02:22:45.971Z,48.08
2024-03-10T02:23:45.917Z,48.18
2024-03-10T02:24:45.913Z,48.28
2024-03-10T02:25:45.909Z,47.75
2024-03-10T02:26:45.920Z,48.38
2024-03-10T02:27:46.254Z,48.81
2024-03-10T02:28:45.887Z,48.80
2024-03-10T02:29:45.869Z,48.58
2024-03-10T02:30:45.842Z,47.94
2024-03-10T02:31:45.916Z,48.48
2024-03-10T02:32:45.840Z,48.23
2024-03-10T02:33:45.785Z,48.60
2024-03-10T02:34:45.796Z,48.59
2024-03-10T02:35:45.804Z,49.06
2024-03-10T02:36:45.770Z,48.97
2024-03-10T02:37:45.786Z,48.98
2024-03-10T02:38:45.737Z,49.34
2024-03-10T02:39:45.716Z,49.55
2024-03-10T02:40:45.720Z,49.99
2024-03-10T02:41:45.723Z,49.84
2024-03-10T02:42:45.705Z,48.69
2024-03-10T02:43:45.736Z,49.01
2024-03-10T02:44:45.687Z,48.79
2024-03-10T02:45:45.671Z,48.60
2024-03-10T02:46:45.692Z,48.49
2024-03-10T02:47:45.633Z,48.70
2024-03-10T02:48:45.595Z,48.24
2024-03-10T02:49:45.626Z,48.18
2024-03-10T02:50:45.593Z,48.30
2024-03-10T02:51:45.546Z,47.78
2024-03-10T02:52:45.582Z,47.84
2024-03-10T02:53:45.536Z,48.13
2024-03-10T02:54:45.538Z,47.80
2024-03-10T02:55:45.564Z,47.79
2024-03-10T02:56:45.539Z,47.80
2024-03-10T02:57:45.494Z,47.74
2024-03-10T02:58:45.551Z,47.67
2024-03-10T02:59:45.465Z,47.79
2024-03-10T03:00:45.502Z,47.71
2024-03-10T03:01:45.481Z,47.50
2024-03-10T03:02:45.427Z,47.33
2024-03-10T03:03:45.421Z,47.49
2024-03-10T03:04:45.442Z,47.84
2024-03-10T03:05:45.432Z,47.79
2024-03-10T03:06:45.399Z,47.05
2024-03-10T03:07:45.453Z,47.73
2024-03-10T03:08:45.339Z,47.56
2024-03-10T03:09:45.381Z,47.84
2024-03-10T03:10:45.383Z,47.48
2024-03-10T03:11:45.320Z,47.22
2024-03-10T03:12:45.320Z,47.51
2024-03-10T03:13:45.340Z,47.63
2024-03-10T03:14:45.279Z,47.41
2024-03-10T03:15:45.276Z,47.67
2024-03-10T03:16:45.263Z,47.76
2024-03-10T03:17:45.278Z,47.84
2024-03-10T03:18:45.228Z,47.40
2024-03-10T03:19:45.228Z,47.93
2024-03-10T03:20:45.200Z,48.56
2024-03-10T03:21:45.180Z,48.36
2024-03-10T03:22:45.312Z,48.88
2024-03-10T03:23:45.154Z,48.54
2024-03-10T03:24:45.134Z,48.22
2024-03-10T03:25:45.230Z,47.80
2024-03-10T03:26:45.122Z,47.59
2024-03-10T03:27:45.104Z,47.45
2024-03-10T03:28:45.138Z,47.41
2024-03-10T03:29:45.115Z,47.08
2024-03-10T03:30:45.073Z,46.99
2024-03-10T03:31:45.111Z,47.88
2024-03-10T03:32:45.136Z,48.04
2024-03-10T03:33:45.052Z,47.83
2024-03-10T03:34:45.048Z,47.97
2024-03-10T03:35:45.001Z,47.79
2024-03-10T03:36:45.012Z,47.64
2024-03-10T03:37:44.991Z,47.69
2024-03-10T03:38:44.979Z,47.60
2024-03-10T03:39:45.026Z,47.42
2024-03-10T03:40:44.991Z,47.77
2024-03-10T03:41:44.926Z,48.34
2024-03-10T03:42:44.914Z,48.43
2024-03-10T03:43:45.014Z,48.71
2024-03-10T03:44:44.926Z,48.58
2024-03-10T03:45:44.885Z,47.98
2024-03-10T03:46:44.880Z,48.54
2024-03-10T03:47:44.913Z,48.48
2024-03-10T03:48:44.853Z,48.92
2024-03-10T03:49:44.904Z,48.60
2024-03-10T03:50:44.809Z,48.78
2024-03-10T03:51:44.820Z,49.32
2024-03-10T03:52:44.823Z,49.41
2024-03-10T03:53:44.769Z,49.46
2024-03-10T03:54:44.772Z,48.99
2024-03-10T03:55:44.770Z,49.50
2024-03-10T03:56:44.740Z,49.54
2024-03-10T03:57:44.732Z,48.88
2024-03-10T03:58:44.768Z,49.19
2024-03-10T03:59:44.694Z,49.33
2024-03-10T04:00:44.713Z,49.10
2024-03-10T04:01:44.694Z,49.49
2024-03-10T04:02:44.675Z,49.43
2024-03-10T04:03:44.658Z,49.41
2024-03-10T04:04:44.654Z,49.61
2024-03-10T04:05:44.630Z,49.80
2024-03-10T04:06:44.625Z,49.71
2024-03-10T04:07:44.611Z,50.17
2024-03-10T04:08:44.648Z,50.54
2024-03-10T04:09:44.605Z,50.08
2024-03-10T04:10:44.602Z,49.71
2024-03-10T04:11:44.614Z,50.06
2024-03-10T04:12:44.529Z,49.81
2024-03-10T04:13:44.543Z,49.35
2024-03-10T04:14:44.525Z,49.34
2024-03-10T04:15:44.494Z,49.14
2024-03-10T04:16:44.606Z,49.48
2024-03-10T04:17:44.552Z,49.82
2024-03-10T04:18:44.454Z,49.84
2024-03-10T04:19:44.628Z,49.94
2024-03-10T04:20:44.442Z,49.89
2024-03-10T04:21:44.440Z,49.87
2024-03-10T04:22:44.524Z,49.61
2024-03-10T04:23:44.415Z,49.79
2024-03-10T04:24:44.394Z,50.08
2024-03-10T04:25:44.509Z,50.25
2024-03-10T04:26:44.392Z,50.43
2024-03-10T04:27:44.350Z,50.70
2024-03-10T04:28:44.402Z,50.88
2024-03-10T04:29:44.305Z,50.89
2024-03-10T04:30:44.305Z,50.90
2024-03-10T04:31:44.278Z,51.15
2024-03-10T04:32:44.344Z,51.30
2024-03-10T04:33:44.272Z,50.89
2024-03-10T04:34:44.249Z,51.10
2024-03-10T04:35:44.249Z,50.52
2024-03-10T04:36:44.237Z,50.83
2024-03-10T04:37:44.217Z,51.14
2024-03-10T04:38:44.199Z,51.58
2024-03-10T04:39:44.204Z,51.23
2024-03-10T06:44:33.636Z,54.74
2024-03-10T06:45:34.708Z,55.11
2024-03-10T06:46:34.610Z,55.29
2024-03-10T06:50:12.014Z,54.57
2024-03-10T06:53:12.141Z,54.78
2024-03-10T06:54:12.488Z,54.83
2024-03-10T06:55:12.276Z,54.76
2024-03-10T07:14:10.732Z,55.51
2024-03-10T07:23:09.377Z,55.86
2024-03-10T07:24:10.967Z,56.11
2024-03-10T07:25:10.412Z,56.27
2024-03-10T07:26:10.271Z,55.91
2024-03-10T07:27:10.300Z,55.41
2024-03-10T07:28:10.205Z,55.15
2024-03-10T07:29:10.234Z,55.39
2024-03-10T07:30:10.231Z,55.86
2024-03-10T07:31:10.182Z,56.07
2024-03-10T07:32:10.305Z,55.41
2024-03-10T07:33:10.270Z,55.32
2024-03-10T07:37:49.540Z,55.75
2024-03-10T07:45:42.407Z,56.09
2024-03-10T07:46:43.399Z,56.43
2024-03-10T07:47:43.543Z,56.25
2024-03-10T07:48:46.140Z,57.09
2024-03-10T07:49:43.202Z,56.91
2024-03-10T07:54:51.659Z,54.86
2024-03-10T07:57:36.183Z,55.34
2024-03-10T07:58:36.838Z,54.47
2024-03-10T07:59:36.970Z,55.34
2024-03-10T08:00:36.779Z,56.16
2024-03-10T08:01:36.790Z,56.64
2024-03-10T08:02:37.008Z,56.08
2024-03-10T08:11:43.501Z,56.63
2024-03-10T08:12:44.665Z,56.39
2024-03-10T08:18:40.825Z,59.08
2024-03-10T09:49:43.094Z,49.33
2024-03-10T10:32:57.664Z,45.11
2024-03-10T10:35:07.254Z,45.82
2024-03-10T10:35:58.516Z,47.23
2024-03-10T10:41:24.615Z,46.71
2024-03-10T10:43:59.348Z,46.44
2024-03-10T10:45:01.957Z,45.32
2024-03-10T10:46:00.806Z,44.75
2024-03-10T10:54:57.138Z,48.83
2024-03-10T10:56:09.357Z,50.28
2024-03-10T10:56:58.468Z,50.17
2024-03-10T10:57:58.028Z,50.42
2024-03-10T10:58:58.042Z,51.24
2024-03-10T10:59:58.185Z,49.36
2024-03-10T11:01:05.471Z,50.22
2024-03-10T11:01:58.274Z,49.54
2024-03-10T11:02:57.965Z,49.04
2024-03-10T11:04:00.348Z,50.02
2024-03-10T11:04:57.943Z,49.09
2024-03-10T11:05:57.912Z,48.87
2024-03-10T11:08:32.127Z,47.09
2024-03-10T11:09:32.997Z,47.04
2024-03-10T11:10:32.954Z,46.56
2024-03-10T11:11:33.099Z,46.80
2024-03-10T11:12:32.937Z,47.62
2024-03-10T11:13:33.025Z,46.89
2024-03-10T11:14:32.896Z,47.15
2024-03-10T11:15:32.835Z,47.73
2024-03-10T11:16:32.842Z,48.06
2024-03-10T11:17:32.906Z,46.73
2024-03-10T11:18:32.882Z,46.58
2024-03-10T11:19:32.796Z,46.53
2024-03-10T11:20:33.912Z,46.66
2024-03-10T11:21:32.785Z,46.95
2024-03-10T11:22:32.761Z,47.43
2024-03-10T11:23:32.801Z,47.36
2024-03-10T11:24:32.786Z,46.47
2024-03-10T11:25:32.722Z,46.63
2024-03-10T11:26:32.721Z,47.22
2024-03-10T11:27:32.706Z,46.33
2024-03-10T11:28:32.704Z,45.72
2024-03-10T11:29:32.867Z,45.31
2024-03-10T11:30:32.684Z,44.93
2024-03-10T11:31:32.698Z,45.48
2024-03-10T11:32:33.343Z,46.44
2024-03-10T11:33:32.668Z,46.50
2024-03-10T11:34:32.630Z,46.18
2024-03-10T11:35:32.774Z,46.75
2024-03-10T11:36:32.595Z,46.56
2024-03-10T11:37:35.255Z,45.59
2024-03-10T11:38:33.294Z,45.47
2024-03-10T11:41:35.552Z,44.74
2024-03-10T11:42:36.633Z,45.27
2024-03-10T11:43:36.369Z,44.84
2024-03-10T11:44:36.397Z,44.93
2024-03-10T11:45:36.439Z,43.80
2024-03-10T11:46:36.709Z,44.04
2024-03-10T11:47:36.561Z,44.42
2024-03-10T11:48:36.570Z,44.26
2024-03-10T11:49:36.310Z,44.77
2024-03-10T11:50:36.330Z,43.95
2024-03-10T11:51:37.078Z,44.31
2024-03-10T11:52:36.302Z,43.74
2024-03-10T11:53:36.298Z,43.44
2024-03-10T11:54:36.522Z,44.03
2024-03-10T11:55:36.264Z,43.74
2024-03-10T11:56:36.345Z,44.34
2024-03-10T11:57:36.390Z,45.33
2024-03-10T11:58:37.305Z,43.87
2024-03-10T11:59:37.110Z,44.44
2024-03-10T12:00:37.528Z,44.76
2024-03-10T12:01:38.456Z,44.22
2024-03-10T12:02:36.952Z,43.97
2024-03-10T12:03:38.791Z,44.31
2024-03-10T12:04:37.626Z,44.13
2024-03-10T12:05:39.228Z,43.03
2024-03-10T12:07:53.748Z,43.27
2024-03-10T12:08:54.521Z,44.03
2024-03-10T12:09:54.478Z,43.69
2024-03-10T12:10:56.401Z,43.86
2024-03-10T12:11:55.941Z,43.59
2024-03-10T12:12:56.074Z,43.26
2024-03-10T12:13:55.978Z,43.36
2024-03-10T12:15:02.578Z,43.09
2024-03-10T12:15:55.686Z,43.68
2024-03-10T12:16:55.786Z,44.65
2024-03-10T12:17:56.582Z,44.38
2024-03-10T12:18:57.370Z,43.76
2024-03-10T12:19:55.831Z,43.87
2024-03-10T12:20:54.966Z,43.60
2024-03-10T12:21:55.359Z,43.84
2024-03-10T12:22:55.721Z,43.63
2024-03-10T12:23:55.117Z,44.52
2024-03-10T12:24:58.000Z,43.89
2024-03-10T12:25:55.893Z,43.53
2024-03-10T12:26:54.610Z,43.68
2024-03-10T12:27:54.536Z,43.73
2024-03-10T12:28:56.147Z,43.37
2024-03-10T12:29:54.668Z,42.63
2024-03-10T12:30:54.715Z,43.04
2024-03-10T12:31:56.163Z,42.49
2024-03-10T12:32:55.247Z,41.73
2024-03-10T12:34:16.327Z,41.92
2024-03-10T12:34:55.819Z,41.94
2024-03-10T12:35:56.808Z,41.11
2024-03-10T12:36:55.713Z,41.47
2024-03-10T12:37:55.821Z,42.24
2024-03-10T12:38:54.431Z,42.45
2024-03-10T12:39:54.575Z,41.85
2024-03-10T12:40:54.414Z,42.46
2024-03-10T12:41:55.353Z,41.83
2024-03-10T12:42:58.521Z,42.45
2024-03-10T12:43:56.982Z,41.89
2024-03-10T12:44:55.520Z,42.07
2024-03-10T12:45:54.629Z,42.49
2024-03-10T12:46:54.521Z,41.19
2024-03-10T12:47:54.444Z,40.78
2024-03-10T12:48:54.864Z,40.58
2024-03-10T12:49:55.809Z,41.35
2024-03-10T12:50:54.128Z,41.01
2024-03-10T12:51:55.269Z,40.41
2024-03-10T12:52:54.103Z,40.64
2024-03-10T12:53:56.203Z,40.63
2024-03-10T12:54:54.330Z,40.94
2024-03-10T12:55:54.007Z,41.56
2024-03-10T12:56:54.026Z,41.10
2024-03-10T12:57:54.224Z,41.09
2024-03-10T12:58:57.974Z,40.44
2024-03-10T12:59:54.855Z,40.13
2024-03-10T13:00:55.390Z,40.56
2024-03-10T13:02:06.790Z,40.94
2024-03-10T13:02:53.816Z,41.63
2024-03-10T13:03:53.949Z,40.78
2024-03-10T13:04:54.747Z,41.62
2024-03-10T13:05:55.840Z,41.92
2024-03-10T13:06:53.813Z,41.92
2024-03-10T13:09:16.610Z,45.08
2024-03-10T13:10:17.586Z,45.49
2024-03-10T13:11:18.709Z,44.33
2024-03-10T13:12:17.570Z,43.97
2024-03-10T13:13:17.425Z,43.46
2024-03-10T13:14:17.522Z,42.81
2024-03-10T13:15:17.696Z,43.36
2024-03-10T13:16:17.399Z,44.55
2024-03-10T13:17:17.365Z,44.35
2024-03-10T13:18:17.357Z,44.23
2024-03-10T13:19:17.310Z,44.18
2024-03-10T13:20:17.366Z,43.85
2024-03-10T13:21:17.291Z,42.09
2024-03-10T13:22:17.285Z,42.41
2024-03-10T13:23:17.380Z,42.19
2024-03-10T13:24:17.270Z,41.99
2024-03-10T13:25:17.246Z,42.34
2024-03-10T13:26:17.250Z,42.69
2024-03-10T13:27:17.207Z,42.66
2024-03-10T13:28:17.194Z,42.01
2024-03-10T13:29:17.215Z,42.71
2024-03-10T13:30:17.175Z,42.66
2024-03-10T13:31:17.181Z,42.67
2024-03-10T13:32:17.256Z,42.70
2024-03-10T13:33:17.145Z,42.77
2024-03-10T13:34:17.120Z,44.73
2024-03-10T13:35:17.207Z,44.22
2024-03-10T13:36:18.200Z,43.32
2024-03-10T13:37:17.066Z,44.52
2024-03-10T13:38:17.088Z,46.84
2024-03-10T13:39:17.051Z,46.05
2024-03-10T13:40:17.026Z,45.18
2024-03-10T13:41:17.121Z,45.01
2024-03-10T13:42:16.988Z,44.45
2024-03-10T13:43:16.981Z,44.86
2024-03-10T13:44:16.975Z,45.50
2024-03-10T13:45:23.452Z,45.36
2024-03-10T13:46:16.963Z,44.85
2024-03-10T13:47:16.963Z,44.56
2024-03-10T13:48:16.990Z,45.43
2024-03-10T13:49:16.918Z,44.69
2024-03-10T13:50:16.970Z,44.99
2024-03-10T13:51:16.896Z,45.50
2024-03-10T13:52:20.094Z,44.59
2024-03-10T13:53:16.913Z,43.70
2024-03-10T13:54:16.839Z,43.77
2024-03-10T13:55:16.844Z,43.22
2024-03-10T13:56:16.832Z,43.87
2024-03-10T13:57:16.825Z,43.04
2024-03-10T13:58:16.788Z,44.37
2024-03-10T13:59:16.795Z,43.66
2024-03-10T14:00:16.771Z,43.28
2024-03-10T14:01:16.806Z,42.95
2024-03-10T14:02:16.775Z,43.26
2024-03-10T14:03:16.734Z,43.07
2024-03-10T14:04:16.717Z,42.81
2024-03-10T14:05:16.781Z,43.02
2024-03-10T14:06:16.687Z,42.58
2024-03-10T14:07:16.680Z,41.76
2024-03-10T14:08:16.694Z,40.87
2024-03-10T14:09:16.668Z,41.61
2024-03-10T14:10:16.711Z,40.46
2024-03-10T14:11:16.687Z,40.40
2024-03-10T14:12:16.785Z,40.81
2024-03-10T14:13:16.598Z,39.81
2024-03-10T14:14:16.642Z,40.16
2024-03-10T14:15:17.142Z,42.13
2024-03-10T14:16:16.556Z,41.56
2024-03-10T14:25:57.209Z,39.05
2024-03-10T14:26:58.193Z,38.65
2024-03-10T14:27:58.117Z,38.25
2024-03-10T14:28:58.091Z,38.67
2024-03-10T14:29:58.104Z,38.60
2024-03-10T14:30:58.097Z,38.71
2024-03-10T14:31:58.066Z,38.46
2024-03-10T14:32:59.519Z,38.33
2024-03-10T14:33:58.007Z,38.52
2024-03-10T14:34:58.021Z,38.52
2024-03-10T14:35:57.984Z,38.85
2024-03-10T14:36:57.997Z,38.59
2024-03-10T14:37:57.972Z,38.77
2024-03-10T14:38:57.981Z,38.82
2024-03-10T14:39:57.920Z,38.67
2024-03-10T14:40:57.924Z,38.71
2024-03-10T14:41:57.886Z,38.60
2024-03-10T14:42:57.874Z,38.80
2024-03-10T14:43:57.913Z,38.77
2024-03-10T14:44:57.847Z,39.38
2024-03-10T14:45:57.856Z,39.05
2024-03-10T14:46:57.864Z,39.45
2024-03-10T14:47:57.838Z,39.20
2024-03-10T14:48:57.789Z,39.40
2024-03-10T14:49:57.816Z,39.53
2024-03-10T14:50:57.768Z,39.69
2024-03-10T14:51:57.762Z,39.71
2024-03-10T14:52:57.774Z,39.71
2024-03-10T14:53:57.744Z,40.28
2024-03-10T14:54:57.718Z,40.18
2024-03-10T14:55:57.743Z,40.63
2024-03-10T14:56:57.830Z,39.88
2024-03-10T14:57:57.680Z,39.99
2024-03-10T14:58:57.720Z,40.11
2024-03-10T14:59:57.676Z,40.07
2024-03-10T15:00:58.124Z,40.26
2024-03-10T15:01:57.664Z,40.58
2024-03-10T15:02:57.642Z,40.57
2024-03-10T15:03:58.016Z,40.94
2024-03-10T15:04:57.604Z,42.07
2024-03-10T15:05:57.576Z,41.59
2024-03-10T15:07:00.025Z,41.33
2024-03-10T15:07:57.533Z,41.49
2024-03-10T15:08:57.681Z,41.75
2024-03-10T15:09:57.510Z,41.91
2024-03-10T15:10:57.797Z,42.32
2024-03-10T15:11:57.673Z,42.80
2024-03-10T15:12:57.452Z,42.94
2024-03-10T15:13:57.477Z,42.75
2024-03-10T15:14:57.422Z,42.94
2024-03-10T15:15:57.424Z,43.07
2024-03-10T15:16:57.456Z,43.27
2024-03-10T15:17:57.395Z,43.32
2024-03-10T15:18:57.456Z,43.18
2024-03-10T15:19:57.387Z,43.53
2024-03-10T15:20:57.346Z,44.41
2024-03-10T15:21:57.344Z,44.52
2024-03-10T15:22:57.407Z,44.81
2024-03-10T15:23:57.309Z,44.82
2024-03-10T15:24:57.297Z,45.15
2024-03-10T15:25:57.287Z,44.86
2024-03-10T15:26:57.285Z,44.82
2024-03-10T15:27:57.261Z,44.81
2024-03-10T15:28:57.285Z,44.66
2024-03-10T15:29:57.224Z,44.70
2024-03-10T15:30:57.227Z,45.21
2024-03-10T15:31:57.220Z,45.28
2024-03-10T15:32:57.204Z,44.83
2024-03-10T15:33:57.170Z,44.91
2024-03-10T15:34:57.205Z,44.98
2024-03-10T15:35:57.153Z,45.25
2024-03-10T15:36:57.128Z,44.59
2024-03-10T15:37:57.150Z,44.49
2024-03-10T15:38:57.095Z,45.58
2024-03-10T15:39:57.118Z,45.77
2024-03-10T15:40:57.222Z,45.46
2024-03-10T15:41:57.102Z,45.73
2024-03-10T15:42:57.053Z,46.58
2024-03-10T15:43:57.077Z,46.07
2024-03-10T15:44:57.039Z,46.05
2024-03-10T15:45:57.013Z,46.16
2024-03-10T15:46:57.003Z,46.02
2024-03-10T15:47:57.325Z,46.11
2024-03-10T15:48:56.972Z,46.48
2024-03-10T15:49:58.677Z,46.86
2024-03-10T15:50:56.968Z,47.10
2024-03-10T15:51:56.923Z,47.15
2024-03-10T15:52:56.966Z,47.15
2024-03-10T15:53:56.900Z,47.34
2024-03-10T15:54:56.940Z,47.02
2024-03-10T15:55:56.909Z,47.77
2024-03-10T15:56:56.864Z,47.93
2024-03-10T15:57:56.857Z,48.27
2024-03-10T15:58:56.996Z,47.69
2024-03-10T15:59:56.821Z,47.67
2024-03-10T16:00:56.815Z,47.62
2024-03-10T16:01:56.821Z,47.96
2024-03-10T16:02:56.766Z,47.46
2024-03-10T16:03:56.814Z,47.49
2024-03-10T16:04:56.790Z,47.88
2024-03-10T16:05:56.757Z,48.04
2024-03-10T16:06:56.716Z,48.08
2024-03-10T16:07:56.733Z,47.85
2024-03-10T16:08:56.691Z,48.06
2024-03-10T16:09:56.687Z,48.05
2024-03-10T16:10:56.812Z,48.43
2024-03-10T16:11:56.794Z,48.37
2024-03-10T16:12:56.653Z,48.51
2024-03-10T16:13:56.689Z,48.60
2024-03-10T16:14:56.636Z,48.51
2024-03-10T16:15:56.637Z,48.84
2024-03-10T16:16:56.648Z,48.67
2024-03-10T16:17:56.700Z,49.22
2024-03-10T16:18:56.570Z,49.23
2024-03-10T16:19:56.560Z,49.24
2024-03-10T16:20:56.577Z,49.22
2024-03-10T16:21:56.522Z,49.41
2024-03-10T16:22:56.910Z,49.24
2024-03-10T16:23:56.503Z,49.32
2024-03-10T16:24:56.486Z,49.61
2024-03-10T16:25:56.608Z,49.42
2024-03-10T16:26:56.482Z,50.36
2024-03-10T16:27:56.462Z,50.69
2024-03-10T16:28:56.485Z,50.80
2024-03-10T16:29:56.426Z,51.06
2024-03-10T16:30:56.405Z,50.94
2024-03-10T16:31:56.441Z,51.36
2024-03-10T16:32:56.424Z,51.66
2024-03-10T16:33:56.373Z,51.24
2024-03-10T16:34:56.394Z,51.24
2024-03-10T16:35:56.427Z,51.22
2024-03-10T16:36:56.343Z,51.29
2024-03-10T16:37:56.352Z,51.20
2024-03-10T16:38:56.294Z,51.36
2024-03-10T16:39:56.290Z,51.43
2024-03-10T16:40:56.364Z,51.52
2024-03-10T16:41:56.265Z,51.72
2024-03-10T16:42:56.423Z,52.03
2024-03-10T16:43:56.282Z,51.84
2024-03-10T16:44:56.219Z,51.85
2024-03-10T16:45:56.246Z,51.80
2024-03-10T16:46:56.224Z,51.84
2024-03-10T16:47:56.254Z,52.30
2024-03-10T16:48:56.167Z,52.41
2024-03-10T16:49:56.180Z,52.18
2024-03-10T16:50:56.168Z,52.52
2024-03-10T16:51:56.130Z,52.73
2024-03-10T16:52:56.131Z,53.06
2024-03-10T16:53:56.114Z,53.02
2024-03-10T16:54:56.106Z,53.04
2024-03-10T16:55:56.314Z,53.41
2024-03-10T16:56:56.074Z,53.37
2024-03-10T16:57:56.063Z,53.07
2024-03-10T16:58:56.068Z,52.96
2024-03-10T16:59:56.050Z,53.46
2024-03-10T17:00:56.048Z,53.13
2024-03-10T17:01:56.029Z,53.13
2024-03-10T17:02:56.034Z,53.33
2024-03-10T17:03:55.981Z,53.54
2024-03-10T17:04:56.122Z,53.72
2024-03-10T17:05:56.153Z,53.79
2024-03-10T17:06:55.944Z,53.61
2024-03-10T17:07:55.951Z,53.36
2024-03-10T17:08:55.921Z,53.31
2024-03-10T17:09:55.898Z,54.25
2024-03-10T17:10:56.078Z,55.42
2024-03-10T17:11:55.994Z,56.09
2024-03-10T17:12:55.910Z,56.50
2024-03-10T17:13:55.887Z,56.85
2024-03-10T17:14:55.847Z,57.09
2024-03-10T17:15:55.905Z,57.70
2024-03-10T17:16:55.844Z,57.84
2024-03-10T17:17:55.894Z,58.16
2024-03-10T17:18:55.852Z,58.51
2024-03-10T17:19:55.786Z,58.78
2024-03-10T17:20:55.756Z,58.93
2024-03-10T17:21:55.757Z,59.08
2024-03-10T17:22:55.772Z,59.20
2024-03-10T17:23:55.730Z,59.44
2024-03-10T17:24:55.707Z,59.37
2024-03-10T17:25:55.731Z,59.64
2024-03-10T17:26:55.743Z,59.44
2024-03-10T17:27:55.669Z,59.18
2024-03-10T17:28:55.698Z,58.75
2024-03-10T17:29:55.638Z,58.88
2024-03-10T17:30:55.637Z,59.13
2024-03-10T17:31:55.670Z,59.23
2024-03-10T17:32:55.779Z,59.25
2024-03-10T17:33:55.589Z,59.41
2024-03-10T17:34:55.600Z,59.78
2024-03-10T17:35:55.578Z,59.85
2024-03-10T17:36:55.560Z,59.92
2024-03-10T17:37:55.552Z,59.95
2024-03-10T17:38:55.534Z,60.33
2024-03-10T17:39:55.549Z,60.37
2024-03-10T17:40:55.559Z,60.36
2024-03-10T17:41:55.498Z,60.25
2024-03-10T17:42:55.458Z,60.17
2024-03-10T17:43:55.536Z,60.39
2024-03-10T17:44:55.475Z,60.37
2024-03-10T17:45:55.417Z,60.41
2024-03-10T17:46:55.494Z,60.42
2024-03-10T17:47:55.535Z,60.29
2024-03-10T17:48:55.383Z,60.22
2024-03-10T17:49:55.451Z,60.55
2024-03-10T17:50:55.377Z,60.32
2024-03-10T17:51:55.342Z,60.50
2024-03-10T17:52:55.373Z,60.65
2024-03-10T17:53:55.333Z,60.70
2024-03-10T17:54:55.309Z,60.82
2024-03-10T17:55:55.297Z,61.05
2024-03-10T17:56:55.301Z,61.13
2024-03-10T17:57:55.270Z,61.13
2024-03-10T17:58:55.276Z,61.23
2024-03-10T17:59:55.268Z,61.31
2024-03-10T18:00:55.249Z,61.41
2024-03-10T18:01:55.225Z,61.34
2024-03-10T18:02:55.198Z,61.34
2024-03-10T18:03:55.198Z,61.43
2024-03-10T18:04:55.215Z,61.07
2024-03-10T18:05:55.172Z,61.17
2024-03-10T18:06:55.145Z,61.26
2024-03-10T18:07:55.231Z,61.20
2024-03-10T18:08:55.149Z,60.70
2024-03-10T18:09:55.127Z,60.75
2024-03-10T18:10:55.155Z,60.76
2024-03-10T18:11:55.154Z,60.68
2024-03-10T18:12:55.089Z,60.66
2024-03-10T18:13:55.156Z,60.72
2024-03-10T18:14:55.069Z,60.83
2024-03-10T18:15:55.037Z,60.58
2024-03-10T18:16:55.021Z,60.64
2024-03-10T18:17:55.184Z,60.54
2024-03-10T18:18:55.041Z,60.63
2024-03-10T18:19:55.151Z,60.62
2024-03-10T18:20:54.970Z,60.64
2024-03-10T18:21:54.958Z,60.78
2024-03-10T18:22:54.955Z,60.83
2024-03-10T18:23:58.330Z,60.70
2024-03-10T18:24:54.982Z,60.88
2024-03-10T18:25:54.932Z,61.04
2024-03-10T18:26:54.920Z,61.08
2024-03-10T18:27:54.887Z,61.21
2024-03-10T18:28:54.936Z,61.40
2024-03-10T18:29:54.917Z,61.42
2024-03-10T18:30:54.898Z,61.63
2024-03-10T18:31:57.754Z,62.00
2024-03-10T18:32:54.899Z,62.14
2024-03-10T18:33:54.817Z,62.62
2024-03-10T18:34:54.834Z,63.11
2024-03-10T18:35:58.097Z,62.87
2024-03-10T18:36:54.803Z,63.59
2024-03-10T18:37:54.771Z,63.76
2024-03-10T18:38:54.771Z,63.99